Time;durP1;ratioP1;P1;durP2;ratioP2;P2;SDS_P1;SDS_P2;PMS_P1;PMS_P2;Temp;Humidity;BMP_temperature;BMP_pressure;BME280_temperature;BME280_humidity;BME280_pressure;Samples;Min_cycle;Max_cycle;Signal;HPM_P1;HPM_P2
2021/08/14 00:00:02;;;;;;;2.60;0.70;;;17.00;74.80;;;;;;4973413;28;20087;-77
2021/08/14 00:02:30;;;;;;;3.33;0.60;;;17.00;74.80;;;;;;4986123;28;20094;-78
2021/08/14 00:05:01;;;;;;;1.83;0.50;;;16.90;74.90;;;;;;4969576;28;20098;-78
2021/08/14 00:07:28;;;;;;;1.95;0.52;;;16.90;75.00;;;;;;4965284;28;20511;-78
2021/08/14 00:09:55;;;;;;;3.45;0.50;;;16.90;75.10;;;;;;4941027;28;20072;-78
2021/08/14 00:12:22;;;;;;;2.13;0.40;;;16.90;75.20;;;;;;4989013;28;20043;-78
2021/08/14 00:14:49;;;;;;;3.42;0.73;;;16.80;75.20;;;;;;4973967;28;20046;-78
2021/08/14 00:17:22;;;;;;;2.13;0.50;;;16.80;75.30;;;;;;4973234;28;20066;-78
2021/08/14 00:19:49;;;;;;;2.60;0.60;;;16.80;75.40;;;;;;4988750;28;20051;-78
2021/08/14 00:22:16;;;;;;;2.80;0.50;;;16.80;75.50;;;;;;4972701;28;20459;-78
2021/08/14 00:24:43;;;;;;;3.53;0.50;;;16.80;75.60;;;;;;4956901;28;20030;-78
2021/08/14 00:27:10;;;;;;;2.08;0.60;;;16.80;75.70;;;;;;4988439;28;20058;-78
2021/08/14 00:29:38;;;;;;;2.38;0.60;;;16.70;75.70;;;;;;4972986;28;20518;-78
2021/08/14 00:32:05;;;;;;;1.48;0.57;;;16.70;75.80;;;;;;4956634;28;20138;-78
2021/08/14 00:34:32;;;;;;;1.73;0.50;;;16.70;75.90;;;;;;4941077;28;20059;-78
2021/08/14 00:36:59;;;;;;;3.63;0.70;;;16.70;75.90;;;;;;4972379;28;20205;-78
2021/08/14 00:39:26;;;;;;;1.60;0.30;;;16.80;76.00;;;;;;4975341;28;20035;-78
2021/08/14 00:41:53;;;;;;;2.65;0.57;;;16.80;75.90;;;;;;4956634;28;20720;-77
2021/08/14 00:44:20;;;;;;;1.88;0.70;;;16.80;76.00;;;;;;4965984;28;20125;-78
2021/08/14 00:46:47;;;;;;;2.15;0.50;;;16.80;76.00;;;;;;4965461;28;20047;-78
2021/08/14 00:49:35;;;;;;;2.58;0.70;;;16.80;76.00;;;;;;4957015;28;20081;-78
2021/08/14 00:52:10;;;;;;;3.30;0.75;;;16.90;76.00;;;;;;4937755;28;20046;-78
2021/08/14 00:54:38;;;;;;;3.40;0.73;;;16.90;76.10;;;;;;4964445;28;20447;-78
2021/08/14 00:57:08;;;;;;;3.63;0.68;;;16.90;76.10;;;;;;4970458;28;20051;-78
2021/08/14 00:59:36;;;;;;;4.13;0.70;;;16.90;76.10;;;;;;4970920;28;20044;-78
2021/08/14 01:02:07;;;;;;;3.97;0.85;;;16.90;76.20;;;;;;4988013;28;20408;-78
2021/08/14 01:04:35;;;;;;;2.55;0.63;;;16.90;76.10;;;;;;4972062;28;20098;-78
2021/08/14 01:07:02;;;;;;;2.30;0.60;;;16.90;76.10;;;;;;4952979;28;20039;-78
2021/08/14 01:09:45;;;;;;;2.90;0.68;;;16.90;76.20;;;;;;4971538;28;20069;-78
2021/08/14 01:12:33;;;;;;;2.03;0.57;;;16.90;76.20;;;;;;4975524;28;20051;-78
2021/08/14 01:15:04;;;;;;;3.20;0.55;;;16.90;76.30;;;;;;4972561;28;20101;-78
2021/08/14 01:17:33;;;;;;;3.05;0.85;;;16.90;76.30;;;;;;4988285;28;20147;-78
2021/08/14 01:20:00;;;;;;;2.65;0.80;;;16.90;76.40;;;;;;4955548;28;20443;-78
2021/08/14 01:22:27;;;;;;;1.98;0.90;;;16.80;76.50;;;;;;4972085;28;20518;-78
2021/08/14 01:24:54;;;;;;;3.70;0.90;;;16.80;76.60;;;;;;4973127;28;20050;-78
2021/08/14 01:27:21;;;;;;;4.57;1.35;;;16.80;76.70;;;;;;4943648;28;20070;-78
2021/08/14 01:29:48;;;;;;;5.80;1.38;;;16.70;76.70;;;;;;4965284;28;20051;-78
2021/08/14 01:32:15;;;;;;;2.90;1.08;;;16.70;76.80;;;;;;4972044;28;20074;-78
2021/08/14 01:34:43;;;;;;;5.10;1.73;;;16.70;77.00;;;;;;4972369;28;20491;-78
2021/08/14 01:37:10;;;;;;;6.63;0.93;;;16.70;77.00;;;;;;4988025;28;20523;-78
2021/08/14 01:39:38;;;;;;;2.58;1.08;;;16.60;77.00;;;;;;4973370;28;20082;-78
2021/08/14 01:42:07;;;;;;;5.63;1.25;;;16.60;77.10;;;;;;4973224;28;20042;-79
2021/08/14 01:44:35;;;;;;;3.92;0.90;;;16.60;77.20;;;;;;4972920;28;20106;-78
2021/08/14 01:47:03;;;;;;;3.28;0.93;;;16.60;77.30;;;;;;4955776;28;20071;-79
2021/08/14 01:49:30;;;;;;;3.55;0.95;;;16.50;77.40;;;;;;4956991;28;20046;-78
2021/08/14 01:51:57;;;;;;;2.83;0.80;;;16.50;77.40;;;;;;4988126;28;20043;-78
2021/08/14 01:54:24;;;;;;;3.88;0.90;;;16.50;77.40;;;;;;4970878;28;20480;-78
2021/08/14 01:56:51;;;;;;;4.63;0.95;;;16.50;77.40;;;;;;4972107;28;20192;-78
2021/08/14 01:59:19;;;;;;;3.50;1.30;;;16.50;77.40;;;;;;4971519;28;20050;-78
2021/08/14 02:01:46;;;;;;;2.80;0.80;;;16.50;77.50;;;;;;4991750;28;20121;-78
2021/08/14 02:04:13;;;;;;;2.38;0.90;;;16.50;77.40;;;;;;4975190;28;20061;-78
2021/08/14 02:06:40;;;;;;;2.63;0.57;;;16.60;77.50;;;;;;4974985;28;20090;-78
2021/08/14 02:09:07;;;;;;;3.28;0.90;;;16.60;77.50;;;;;;4959038;28;20042;-78
2021/08/14 02:11:35;;;;;;;4.78;1.02;;;16.50;77.50;;;;;;4975135;28;20122;-78
2021/08/14 02:14:04;;;;;;;1.63;0.50;;;16.50;77.60;;;;;;4975050;28;20385;-78
2021/08/14 02:16:33;;;;;;;2.00;0.70;;;16.50;77.70;;;;;;4968083;28;20483;-78
2021/08/14 02:19:00;;;;;;;2.33;0.93;;;16.50;77.80;;;;;;4975197;28;20396;-78
2021/08/14 02:21:27;;;;;;;4.20;0.80;;;16.50;78.00;;;;;;4974882;28;20389;-78
2021/08/14 02:23:55;;;;;;;3.70;0.90;;;16.40;78.00;;;;;;4974770;28;20031;-78
2021/08/14 02:26:22;;;;;;;4.57;1.15;;;16.40;78.10;;;;;;4974909;28;20097;-78
2021/08/14 02:28:49;;;;;;;2.33;0.95;;;16.40;78.30;;;;;;4974758;28;20039;-78
2021/08/14 02:31:16;;;;;;;3.00;0.70;;;16.40;78.30;;;;;;4959888;28;20499;-78
2021/08/14 02:33:44;;;;;;;2.47;0.70;;;16.30;78.30;;;;;;4974294;28;20066;-78
2021/08/14 02:36:13;;;;;;;2.13;0.63;;;16.30;78.40;;;;;;4949547;28;20415;-78
2021/08/14 02:38:40;;;;;;;1.95;0.50;;;16.30;78.50;;;;;;4972416;28;20491;-78
2021/08/14 02:41:08;;;;;;;2.95;0.77;;;16.30;78.50;;;;;;4974383;28;20488;-79
2021/08/14 02:43:35;;;;;;;1.52;0.50;;;16.30;78.60;;;;;;4974238;28;20046;-78
2021/08/14 02:46:04;;;;;;;3.67;0.70;;;16.30;78.70;;;;;;4957461;28;20510;-78
2021/08/14 02:48:32;;;;;;;4.10;1.05;;;16.30;78.80;;;;;;4966872;28;20157;-78
2021/08/14 02:50:59;;;;;;;2.15;0.70;;;16.20;78.80;;;;;;4981277;28;20051;-79
2021/08/14 02:53:27;;;;;;;3.72;0.80;;;16.20;78.90;;;;;;4967760;28;20035;-78
2021/08/14 02:55:54;;;;;;;2.58;0.60;;;16.20;78.90;;;;;;4967897;28;20106;-78
2021/08/14 02:58:21;;;;;;;2.13;0.70;;;16.20;79.00;;;;;;4969382;28;20097;-78
2021/08/14 03:00:48;;;;;;;3.15;0.60;;;16.20;79.10;;;;;;4973123;28;20057;-78
2021/08/14 03:03:15;;;;;;;3.72;0.85;;;16.20;79.10;;;;;;4972420;28;20035;-78
2021/08/14 03:05:42;;;;;;;2.80;1.00;;;16.10;79.10;;;;;;4972241;28;20047;-78
2021/08/14 03:08:10;;;;;;;3.72;0.70;;;16.10;79.10;;;;;;4978494;28;20046;-78
2021/08/14 03:10:41;;;;;;;1.70;0.70;;;16.10;79.20;;;;;;4975173;28;20063;-78
2021/08/14 03:13:10;;;;;;;2.35;0.90;;;16.10;79.20;;;;;;4988844;28;20082;-79
2021/08/14 03:15:37;;;;;;;2.17;0.63;;;16.10;79.30;;;;;;4974087;28;20039;-78
2021/08/14 03:18:05;;;;;;;3.17;0.85;;;16.10;79.40;;;;;;4957718;28;20043;-78
2021/08/14 03:20:32;;;;;;;2.67;0.63;;;16.10;79.50;;;;;;4975524;28;20035;-78
2021/08/14 03:23:00;;;;;;;2.78;0.75;;;16.10;79.60;;;;;;4973227;28;20042;-78
2021/08/14 03:25:27;;;;;;;3.80;0.88;;;16.10;79.60;;;;;;4942035;28;20113;-78
2021/08/14 03:27:54;;;;;;;5.88;1.17;;;16.00;79.60;;;;;;4974266;28;20070;-78
2021/08/14 03:30:21;;;;;;;2.38;0.70;;;16.00;79.70;;;;;;4989872;28;20114;-78
2021/08/14 03:32:48;;;;;;;2.40;0.57;;;16.00;79.70;;;;;;4973385;28;20071;-79
2021/08/14 03:35:15;;;;;;;2.65;0.70;;;16.00;79.80;;;;;;4989598;28;20070;-78
2021/08/14 03:37:43;;;;;;;4.07;1.20;;;16.00;79.80;;;;;;4973368;28;20118;-78
2021/08/14 03:40:12;;;;;;;2.50;0.60;;;16.00;79.90;;;;;;4971289;28;20070;-78
2021/08/14 03:42:39;;;;;;;3.50;0.70;;;16.00;79.90;;;;;;4973779;28;20098;-78
2021/08/14 03:45:07;;;;;;;5.47;1.05;;;16.00;80.00;;;;;;4989686;28;20054;-78
2021/08/14 03:47:33;;;;;;;2.45;0.70;;;15.90;80.00;;;;;;4957391;28;20550;-78
2021/08/14 03:50:00;;;;;;;2.85;0.65;;;15.90;80.00;;;;;;4973210;28;20126;-78
2021/08/14 03:52:27;;;;;;;3.10;0.85;;;15.90;80.10;;;;;;4989563;28;20039;-78
2021/08/14 03:54:54;;;;;;;5.90;0.90;;;15.90;80.10;;;;;;4941504;28;20078;-78
2021/08/14 03:57:21;;;;;;;4.13;0.50;;;15.90;80.20;;;;;;4989610;28;20054;-78
2021/08/14 03:59:48;;;;;;;3.00;0.70;;;15.90;80.20;;;;;;4973200;28;20155;-78
2021/08/14 04:02:15;;;;;;;3.72;0.95;;;15.90;80.30;;;;;;4973270;28;20081;-78
2021/08/14 04:04:42;;;;;;;4.03;0.90;;;15.90;80.30;;;;;;4956954;28;20045;-78
2021/08/14 04:07:09;;;;;;;5.53;0.82;;;15.90;80.30;;;;;;4972575;28;20519;-78
2021/08/14 04:09:36;;;;;;;4.25;1.20;;;15.90;80.30;;;;;;4972694;28;20066;-78
2021/08/14 04:12:05;;;;;;;3.10;0.98;;;15.90;80.30;;;;;;4989127;28;20047;-78
2021/08/14 04:14:32;;;;;;;4.78;1.08;;;15.90;80.30;;;;;;4973043;28;20125;-78
2021/08/14 04:16:59;;;;;;;3.13;1.00;;;15.90;80.30;;;;;;4989151;28;20043;-79
2021/08/14 04:19:26;;;;;;;2.47;0.68;;;15.90;80.30;;;;;;4967010;28;20074;-79
2021/08/14 04:21:53;;;;;;;3.53;0.88;;;15.90;80.40;;;;;;4992275;28;20074;-79
2021/08/14 04:24:20;;;;;;;2.80;0.80;;;16.00;80.40;;;;;;4972200;28;20043;-78
2021/08/14 04:26:47;;;;;;;3.50;1.10;;;15.90;80.40;;;;;;4972503;28;20074;-79
2021/08/14 04:29:14;;;;;;;2.78;0.98;;;16.00;80.50;;;;;;4988924;28;20107;-79
2021/08/14 04:31:41;;;;;;;3.13;0.95;;;15.90;80.40;;;;;;4972593;28;20081;-78
2021/08/14 04:34:08;;;;;;;5.28;1.00;;;15.90;80.40;;;;;;4946429;28;20104;-78
2021/08/14 04:36:35;;;;;;;3.60;0.90;;;15.90;80.40;;;;;;4990181;28;20163;-78
2021/08/14 04:39:02;;;;;;;2.30;0.77;;;15.90;80.40;;;;;;4939331;28;20070;-78
2021/08/14 04:41:29;;;;;;;2.00;1.00;;;15.90;80.40;;;;;;4988946;28;20121;-79
2021/08/14 04:43:56;;;;;;;4.32;1.13;;;16.00;80.50;;;;;;4972282;28;20391;-78
2021/08/14 04:46:23;;;;;;;2.92;1.10;;;16.00;80.50;;;;;;4972603;28;20065;-79
2021/08/14 04:48:50;;;;;;;2.72;0.90;;;16.00;80.50;;;;;;4971807;28;20078;-78
2021/08/14 04:51:17;;;;;;;3.55;0.93;;;16.00;80.50;;;;;;4940841;28;20047;-79
2021/08/14 04:53:44;;;;;;;2.30;0.75;;;16.00;80.50;;;;;;4972089;28;20125;-78
2021/08/14 04:56:11;;;;;;;5.22;1.27;;;16.00;80.50;;;;;;4956357;28;20050;-78
2021/08/14 04:58:38;;;;;;;4.18;1.10;;;16.00;80.50;;;;;;4987650;28;20050;-78
2021/08/14 05:01:05;;;;;;;2.45;1.02;;;16.10;80.50;;;;;;4957994;28;20046;-78
2021/08/14 05:03:32;;;;;;;3.25;1.05;;;16.10;80.50;;;;;;4956378;28;20093;-78
2021/08/14 05:05:59;;;;;;;2.47;1.10;;;16.10;80.60;;;;;;4971896;28;20058;-78
2021/08/14 05:08:26;;;;;;;2.38;0.80;;;16.10;80.60;;;;;;4988559;28;20045;-79
2021/08/14 05:10:53;;;;;;;3.20;1.05;;;16.10;80.70;;;;;;4974663;28;20466;-78
2021/08/14 05:13:20;;;;;;;3.28;0.88;;;16.10;80.70;;;;;;4967117;28;20074;-78
2021/08/14 05:15:47;;;;;;;2.97;0.98;;;16.10;80.70;;;;;;4971732;28;20500;-79
2021/08/14 05:18:16;;;;;;;2.65;0.95;;;16.00;80.70;;;;;;4940295;28;20069;-79
2021/08/14 05:20:43;;;;;;;4.35;0.95;;;16.00;80.80;;;;;;4972371;28;20479;-78
2021/08/14 05:23:13;;;;;;;3.95;1.38;;;16.00;80.80;;;;;;4974652;28;20090;-78
2021/08/14 05:25:40;;;;;;;2.80;1.10;;;16.10;80.90;;;;;;4966369;28;20488;-78
2021/08/14 05:28:07;;;;;;;8.35;1.83;;;16.10;81.40;;;;;;4983749;28;20549;-78
2021/08/14 05:30:34;;;;;;;4.50;0.90;;;16.10;80.70;;;;;;4940510;28;20451;-78
2021/08/14 05:33:01;;;;;;;2.80;0.90;;;16.20;80.60;;;;;;4988249;28;20051;-79
2021/08/14 05:35:28;;;;;;;4.55;0.90;;;16.20;80.50;;;;;;4975529;28;20042;-79
2021/08/14 05:37:55;;;;;;;2.15;0.75;;;16.30;80.40;;;;;;4959850;28;20102;-79
2021/08/14 05:40:22;;;;;;;5.10;1.25;;;16.40;80.30;;;;;;4975286;28;20053;-79
2021/08/14 05:42:49;;;;;;;3.67;1.15;;;16.40;80.20;;;;;;4959743;28;20119;-79
2021/08/14 05:45:17;;;;;;;4.18;1.15;;;16.50;80.20;;;;;;4975202;28;20043;-79
2021/08/14 05:47:44;;;;;;;3.50;0.90;;;16.60;80.10;;;;;;4950768;28;20058;-79
2021/08/14 05:50:12;;;;;;;3.80;1.35;;;16.60;79.90;;;;;;4975135;28;20494;-79
2021/08/14 05:52:39;;;;;;;3.67;1.10;;;16.70;79.80;;;;;;4970815;28;20098;-78
2021/08/14 05:55:06;;;;;;;6.93;1.85;;;16.80;79.80;;;;;;4959399;28;20078;-78
2021/08/14 05:57:33;;;;;;;4.03;1.38;;;16.80;79.60;;;;;;4973962;28;20711;-78
2021/08/14 06:00:00;;;;;;;5.10;1.27;;;16.80;79.50;;;;;;4974916;28;20046;-78
2021/08/14 06:02:30;;;;;;;4.20;1.27;;;16.90;80.00;;;;;;4975288;28;20141;-79
2021/08/14 06:04:57;;;;;;;3.63;1.25;;;17.00;79.20;;;;;;4975618;28;20043;-79
2021/08/14 06:07:24;;;;;;;3.90;1.75;;;17.10;79.20;;;;;;4959215;28;20098;-78
2021/08/14 06:09:51;;;;;;;5.47;1.20;;;17.10;79.00;;;;;;4991046;28;20050;-78
2021/08/14 06:12:18;;;;;;;6.47;2.05;;;17.20;79.00;;;;;;4971982;28;20046;-78
2021/08/14 06:14:45;;;;;;;2.70;1.25;;;17.30;79.50;;;;;;4977218;28;20093;-78
2021/08/14 06:17:12;;;;;;;3.70;1.20;;;17.30;78.70;;;;;;4974424;28;20134;-78
2021/08/14 06:19:40;;;;;;;8.25;2.20;;;17.40;78.70;;;;;;4990313;28;20070;-78
2021/08/14 06:22:09;;;;;;;5.22;1.27;;;17.40;78.50;;;;;;4991227;28;20035;-78
2021/08/14 06:24:36;;;;;;;7.20;2.33;;;17.50;78.40;;;;;;4954637;28;20040;-78
2021/08/14 06:27:03;;;;;;;4.75;2.47;;;17.60;78.30;;;;;;4991405;28;20044;-79
2021/08/14 06:29:30;;;;;;;7.97;2.50;;;17.60;78.30;;;;;;4960729;28;20043;-79
2021/08/14 06:31:58;;;;;;;7.43;2.38;;;17.70;78.20;;;;;;4972346;28;20057;-79
2021/08/14 06:34:25;;;;;;;4.30;2.10;;;17.70;78.10;;;;;;4969788;28;20043;-80
2021/08/14 06:36:52;;;;;;;8.38;2.00;;;17.80;78.00;;;;;;4969687;28;20038;-79
2021/08/14 06:39:19;;;;;;;5.18;1.98;;;17.90;78.00;;;;;;4956899;28;20035;-79
2021/08/14 06:41:46;;;;;;;6.20;2.25;;;17.90;77.80;;;;;;4974634;28;20102;-79
2021/08/14 06:44:13;;;;;;;7.60;3.08;;;18.00;77.80;;;;;;4982826;28;20039;-78
2021/08/14 06:46:40;;;;;;;6.63;2.33;;;18.00;77.70;;;;;;4959468;28;20046;-79
2021/08/14 06:49:07;;;;;;;6.55;2.08;;;18.10;77.70;;;;;;4956099;28;20463;-80
2021/08/14 06:51:36;;;;;;;4.97;1.75;;;18.10;77.60;;;;;;4972293;28;20138;-79
2021/08/14 06:54:03;;;;;;;2.85;1.50;;;18.30;77.60;;;;;;4973381;28;20054;-79
2021/08/14 06:56:31;;;;;;;4.90;1.92;;;18.40;77.50;;;;;;4987611;28;20113;-79
2021/08/14 06:58:58;;;;;;;5.32;1.95;;;18.40;77.90;;;;;;4987750;28;20470;-79
2021/08/14 07:01:25;;;;;;;6.80;2.08;;;18.50;77.20;;;;;;4971950;28;20039;-79
2021/08/14 07:03:52;;;;;;;6.03;2.47;;;18.60;77.70;;;;;;4956121;28;20046;-79
2021/08/14 07:06:24;;;;;;;9.75;2.92;;;18.60;77.00;;;;;;4966914;28;20038;-79
2021/08/14 07:08:51;;;;;;;5.63;1.92;;;18.70;77.00;;;;;;4971523;28;20038;-79
2021/08/14 07:11:20;;;;;;;7.53;2.67;;;18.70;77.00;;;;;;4972134;28;20067;-79
2021/08/14 07:13:48;;;;;;;7.60;2.63;;;18.80;77.00;;;;;;4955789;28;20046;-77
2021/08/14 07:16:15;;;;;;;6.22;2.35;;;18.80;77.40;;;;;;4954647;28;20735;-77
2021/08/14 07:18:43;;;;;;;5.20;2.42;;;18.90;76.70;;;;;;4958724;28;20553;-78
2021/08/14 07:21:10;;;;;;;7.20;2.65;;;18.90;76.60;;;;;;4941897;28;20074;-78
2021/08/14 07:23:37;;;;;;;5.72;2.00;;;19.00;76.70;;;;;;4989704;28;20479;-79
2021/08/14 07:26:07;;;;;;;5.78;2.08;;;19.10;76.60;;;;;;4974497;28;20038;-79
2021/08/14 07:29:02;;;;;;;;;;;;;;;;;;;;;
2021/08/14 07:31:59;;;;;;;10.07;2.42;;;19.20;76.50;;;;;;4972622;28;20055;-82
2021/08/14 07:34:36;;;;;;;5.65;2.50;;;19.30;76.40;;;;;;4957575;28;20054;-79
2021/08/14 07:37:03;;;;;;;5.60;2.35;;;19.30;76.20;;;;;;4973623;28;20514;-80
2021/08/14 07:39:30;;;;;;;6.88;2.42;;;19.40;76.20;;;;;;4977116;28;20581;-79
2021/08/14 07:41:57;;;;;;;8.20;3.35;;;19.50;76.10;;;;;;4990137;28;20440;-80
2021/08/14 07:44:24;;;;;;;7.50;3.20;;;19.50;75.90;;;;;;4957945;28;20163;-79
2021/08/14 07:47:11;;;;;;;6.60;2.15;;;19.60;75.90;;;;;;4960572;28;20042;-80
2021/08/14 07:49:38;;;;;;;8.93;3.17;;;19.60;75.90;;;;;;4993312;28;20062;-79
2021/08/14 07:52:08;;;;;;;8.93;3.33;;;19.60;75.90;;;;;;4971457;28;20470;-83
2021/08/14 07:54:47;;;;;;;7.70;2.45;;;19.70;75.90;;;;;;4973249;28;20049;-83
2021/08/14 07:57:15;;;;;;;6.38;2.55;;;19.80;75.70;;;;;;4973975;28;20113;-80
2021/08/14 07:59:55;;;;;;;7.47;3.45;;;19.80;75.70;;;;;;4957203;28;20055;-80
2021/08/14 08:02:45;;;;;;;8.40;3.53;;;19.90;75.70;;;;;;4973908;28;20407;-80
2021/08/14 08:05:12;;;;;;;11.52;3.67;;;19.80;75.70;;;;;;4973485;28;20102;-82
2021/08/14 08:07:40;;;;;;;10.23;2.97;;;19.80;75.70;;;;;;4977546;28;20047;-80
2021/08/14 08:14:18;;;;;;;6.60;2.00;;;20.10;75.50;;;;;;4989157;28;20407;-82
2021/08/14 08:16:46;;;;;;;4.75;1.55;;;20.30;75.30;;;;;;4958919;28;20061;-82
2021/08/14 08:19:19;;;;;;;6.38;1.88;;;20.40;75.10;;;;;;4972913;28;20057;-82
2021/08/14 08:21:49;;;;;;;4.35;1.50;;;20.60;74.90;;;;;;4988607;28;20050;-82
2021/08/14 08:24:16;;;;;;;5.03;1.48;;;20.70;74.70;;;;;;4989137;28;20105;-82
2021/08/14 08:27:03;;;;;;;7.13;2.45;;;20.80;74.50;;;;;;4972440;28;20046;-81
2021/08/14 08:29:30;;;;;;;9.60;3.13;;;20.90;74.30;;;;;;4968918;28;20862;-81
2021/08/14 08:32:08;;;;;;;6.20;2.17;;;20.90;74.90;;;;;;4969063;28;20049;-82
2021/08/14 08:34:35;;;;;;;5.75;2.38;;;21.00;74.20;;;;;;4988904;28;20050;-82
2021/08/14 08:37:04;;;;;;;8.32;3.05;;;21.00;74.20;;;;;;4957190;28;20046;-81
2021/08/14 08:40:09;;;;;;;6.78;2.85;;;21.00;74.10;;;;;;4956769;28;20503;-81
2021/08/14 08:42:36;;;;;;;9.02;3.13;;;21.00;74.10;;;;;;4989180;28;20082;-82
2021/08/14 08:45:06;;;;;;;6.75;2.95;;;21.00;74.20;;;;;;4957069;28;20127;-82
2021/08/14 08:47:37;;;;;;;8.13;2.88;;;21.10;74.10;;;;;;4945001;28;20051;-82
2021/08/14 08:50:06;;;;;;;12.07;3.90;;;21.10;74.00;;;;;;4971380;28;20078;-81
2021/08/14 08:52:34;;;;;;;13.98;5.00;;;21.20;73.80;;;;;;4996262;28;20105;-82
2021/08/14 08:55:01;;;;;;;8.85;3.38;;;21.20;73.70;;;;;;4956362;28;20051;-82
2021/08/14 08:58:06;;;;;;;8.27;3.25;;;21.20;73.70;;;;;;4972277;28;20046;-81
2021/08/14 09:00:33;;;;;;;7.50;3.15;;;21.30;73.60;;;;;;4979967;28;20051;-79
2021/08/14 09:03:15;;;;;;;6.53;2.83;;;21.30;73.70;;;;;;4998587;28;20051;-80
2021/08/14 09:06:00;;;;;;;9.82;3.72;;;21.50;73.50;;;;;;4967414;28;20042;-78
2021/08/14 09:08:41;;;;;;;9.10;4.75;;;21.60;73.00;;;;;;4976846;28;20035;-78
2021/08/14 09:11:14;;;;;;;8.13;3.17;;;21.70;72.80;;;;;;4995723;28;20046;-78
2021/08/14 09:14:04;;;;;;;10.05;3.25;;;21.70;72.70;;;;;;4977081;28;20054;-80
2021/08/14 09:16:31;;;;;;;10.10;3.58;;;21.80;72.80;;;;;;4964089;28;20105;-79
2021/08/14 09:19:02;;;;;;;9.45;4.10;;;21.80;72.70;;;;;;4976239;28;20137;-78
2021/08/14 09:21:41;;;;;;;9.40;4.05;;;21.80;72.60;;;;;;4976278;28;20047;-79
2021/08/14 09:24:08;;;;;;;11.57;5.32;;;21.80;72.30;;;;;;4962708;28;20106;-80
2021/08/14 09:26:38;;;;;;;13.60;5.70;;;21.80;72.20;;;;;;4992028;28;20094;-79
2021/08/14 09:29:06;;;;;;;10.02;4.60;;;21.90;72.00;;;;;;4960271;28;20462;-81
2021/08/14 09:31:50;;;;;;;13.18;6.38;;;21.90;72.10;;;;;;4955403;28;20086;-78
2021/08/14 09:34:19;;;;;;;22.02;9.95;;;22.00;72.60;;;;;;4966116;28;20101;-80
2021/08/14 09:37:10;;;;;;;17.30;9.73;;;22.00;71.90;;;;;;4974079;28;20090;-79
2021/08/14 09:39:49;;;;;;;12.43;7.25;;;21.80;72.10;;;;;;4968200;28;20138;-79
2021/08/14 09:42:17;;;;;;;15.45;7.65;;;21.80;72.50;;;;;;4978347;28;20047;-79
2021/08/14 09:44:44;;;;;;;17.00;8.48;;;21.70;72.60;;;;;;4975381;28;20529;-79
2021/08/14 09:47:48;;;;;;;16.55;7.70;;;21.60;72.60;;;;;;4962831;28;20058;-79
2021/08/14 09:50:15;;;;;;;15.45;8.35;;;21.50;72.60;;;;;;4920344;28;20046;-79
2021/08/14 09:52:42;;;;;;;19.38;10.77;;;21.50;72.50;;;;;;4951609;28;20502;-79
2021/08/14 09:55:23;;;;;;;16.40;7.93;;;21.40;72.80;;;;;;4948767;28;20122;-79
2021/08/14 09:58:00;;;;;;;14.10;7.15;;;21.40;72.50;;;;;;4978198;28;20125;-79
2021/08/14 10:00:29;;;;;;;21.85;9.45;;;21.50;72.50;;;;;;4962336;28;20117;-79
2021/08/14 10:02:59;;;;;;;17.10;7.03;;;21.50;72.00;;;;;;4959149;28;20070;-79
2021/08/14 10:05:28;;;;;;;14.95;8.32;;;21.50;71.90;;;;;;4949763;28;20444;-79
2021/08/14 10:07:55;;;;;;;18.15;8.45;;;21.50;71.70;;;;;;4958515;28;20039;-79
2021/08/14 10:10:22;;;;;;;18.45;9.48;;;21.60;71.20;;;;;;4908473;29;20039;-78
2021/08/14 10:12:50;;;;;;;16.08;7.57;;;21.50;71.00;;;;;;4941123;28;20090;-81
2021/08/14 10:15:19;;;;;;;17.13;8.68;;;21.50;71.10;;;;;;4949567;28;20069;-80
2021/08/14 10:17:47;;;;;;;16.58;7.80;;;21.50;71.00;;;;;;4923766;29;20046;-78
2021/08/14 10:20:14;;;;;;;16.70;6.75;;;21.50;70.60;;;;;;4966263;28;20126;-76
2021/08/14 10:22:45;;;;;;;13.05;5.95;;;21.60;70.70;;;;;;4954152;28;20035;-78
2021/08/14 10:25:20;;;;;;;18.55;7.10;;;21.70;70.50;;;;;;4955574;29;20054;-78
2021/08/14 10:28:07;;;;;;;16.63;7.10;;;21.70;70.00;;;;;;4925988;29;20069;-81
2021/08/14 10:31:10;;;;;;;14.45;6.75;;;21.70;70.10;;;;;;4951030;29;20051;-79
2021/08/14 10:33:58;;;;;;;13.10;6.57;;;21.70;70.00;;;;;;4936189;28;20492;-82
2021/08/14 10:36:28;;;;;;;15.50;8.02;;;21.90;70.10;;;;;;4954997;28;20036;-82
2021/08/14 10:38:57;;;;;;;17.75;8.80;;;21.90;69.60;;;;;;4960614;28;20051;-81
2021/08/14 10:41:38;;;;;;;16.52;6.50;;;21.80;70.00;;;;;;4939327;29;20051;-79
2021/08/14 10:44:06;;;;;;;15.95;7.18;;;22.10;69.90;;;;;;4955857;28;20518;-80
2021/08/14 10:46:44;;;;;;;15.27;7.38;;;22.10;69.80;;;;;;4953127;28;20101;-74
2021/08/14 10:49:21;;;;;;;11.85;6.97;;;22.10;69.70;;;;;;4951392;28;20050;-76
2021/08/14 10:51:48;;;;;;;13.23;6.03;;;22.00;69.90;;;;;;4961309;28;20051;-76
2021/08/14 10:54:35;;;;;;;14.27;7.43;;;21.90;70.10;;;;;;4947250;28;20066;-77
2021/08/14 10:57:10;;;;;;;16.38;6.80;;;22.00;70.00;;;;;;4950624;28;20043;-76
2021/08/14 10:59:40;;;;;;;12.98;6.57;;;22.10;70.00;;;;;;4977009;28;20066;-77
2021/08/14 11:02:07;;;;;;;11.93;6.03;;;22.10;70.00;;;;;;4988655;28;20038;-77
2021/08/14 11:04:38;;;;;;;14.15;6.43;;;22.10;70.00;;;;;;4939807;28;20450;-76
2021/08/14 11:07:20;;;;;;;14.93;6.95;;;22.10;70.00;;;;;;4970770;28;20082;-75
2021/08/14 11:09:53;;;;;;;12.52;7.75;;;22.10;70.20;;;;;;4990012;28;20393;-75
2021/08/14 11:12:40;;;;;;;17.15;8.40;;;22.00;70.40;;;;;;4978764;28;20076;-83
2021/08/14 11:15:20;;;;;;;15.05;8.60;;;21.80;70.70;;;;;;4966229;28;20069;-83
2021/08/14 11:17:55;;;;;;;15.60;9.35;;;21.70;71.20;;;;;;4960170;28;20063;-85
2021/08/14 11:20:25;;;;;;;16.55;8.77;;;21.60;71.40;;;;;;4964159;28;20102;-82
2021/08/14 11:22:59;;;;;;;14.55;8.10;;;21.50;72.30;;;;;;4974716;28;20101;-87
2021/08/14 11:25:40;;;;;;;14.43;6.68;;;21.50;71.70;;;;;;4963418;28;20050;-83
2021/08/14 11:28:11;;;;;;;9.13;5.57;;;21.60;71.60;;;;;;4974989;28;20070;-84
2021/08/14 11:30:45;;;;;;;13.15;5.90;;;22.00;70.80;;;;;;4973497;28;20051;-84
2021/08/14 11:33:12;;;;;;;13.00;7.00;;;22.30;70.00;;;;;;4986713;28;20106;-88
2021/08/14 11:35:41;;;;;;;11.10;6.10;;;22.30;69.60;;;;;;4958033;28;20133;-86
2021/08/14 11:38:11;;;;;;;13.07;6.05;;;22.50;69.50;;;;;;4968946;28;20049;-87
2021/08/14 11:40:43;;;;;;;12.63;7.38;;;22.60;69.40;;;;;;4968544;28;20039;-84
2021/08/14 11:43:17;;;;;;;9.85;5.70;;;22.50;69.40;;;;;;4957556;28;20039;-86
2021/08/14 11:45:46;;;;;;;13.45;5.82;;;22.40;69.90;;;;;;4974916;28;20042;-85
2021/08/14 11:48:15;;;;;;;9.75;5.35;;;22.30;70.10;;;;;;4978810;28;20131;-82
2021/08/14 11:50:45;;;;;;;10.43;5.57;;;22.30;70.10;;;;;;4991920;28;20849;-82
2021/08/14 11:53:14;;;;;;;13.88;6.57;;;22.40;70.00;;;;;;4974282;28;20447;-82
2021/08/14 11:55:41;;;;;;;10.23;5.80;;;23.00;69.00;;;;;;4989434;28;20046;-83
2021/08/14 11:58:08;;;;;;;10.85;5.13;;;23.40;67.80;;;;;;4989126;28;20153;-80
2021/08/14 12:00:36;;;;;;;12.10;5.60;;;23.80;67.00;;;;;;4974441;28;20074;-81
2021/08/14 12:03:20;;;;;;;11.75;5.20;;;24.20;66.00;;;;;;4956851;28;20062;-80
2021/08/14 12:05:48;;;;;;;9.35;4.25;;;24.40;65.30;;;;;;4972994;28;20059;-80
2021/08/14 12:08:30;;;;;;;9.48;4.60;;;24.60;64.80;;;;;;4975771;28;20086;-82
2021/08/14 12:10:58;;;;;;;;;;;24.30;65.10;;;;;;4974595;28;20046;-80
2021/08/14 12:13:25;;;;;;;10.02;4.55;;;24.00;65.60;;;;;;4988986;28;19953;-81
2021/08/14 12:16:14;;;;;;;8.02;4.10;;;24.30;66.40;;;;;;4973854;28;20073;-84
2021/08/14 12:18:44;;;;;;;11.70;5.22;;;25.10;64.80;;;;;;4967906;28;20054;-75
2021/08/14 12:21:13;;;;;;;11.93;5.60;;;25.50;63.80;;;;;;4972242;28;20042;-75
2021/08/14 12:23:46;;;;;;;9.60;5.68;;;25.90;63.00;;;;;;4972151;28;20043;-75
2021/08/14 12:26:24;;;;;;;8.27;5.20;;;25.90;62.70;;;;;;4987713;28;20482;-76
2021/08/14 12:29:10;;;;;;;11.77;6.38;;;25.90;62.60;;;;;;4973729;28;20049;-79
2021/08/14 12:31:52;;;;;;;9.00;5.50;;;25.50;63.30;;;;;;4982331;28;20070;-75
2021/08/14 12:34:33;;;;;;;11.95;5.50;;;25.60;62.90;;;;;;4971853;28;20477;-76
2021/08/14 12:37:13;;;;;;;8.68;5.60;;;25.50;63.10;;;;;;4972268;28;20093;-77
2021/08/14 12:39:46;;;;;;;7.63;4.32;;;25.40;63.30;;;;;;4956008;28;20066;-76
2021/08/14 12:42:14;;;;;;;8.35;4.88;;;25.10;63.70;;;;;;4972028;28;20045;-77
2021/08/14 12:44:42;;;;;;;10.15;4.57;;;25.50;63.80;;;;;;4955573;28;20535;-76
2021/08/14 12:47:09;;;;;;;9.45;4.35;;;26.10;62.90;;;;;;4972944;28;20445;-76
2021/08/14 12:49:36;;;;;;;8.55;4.35;;;26.60;61.90;;;;;;4971865;28;20500;-75
2021/08/14 12:52:09;;;;;;;11.82;5.60;;;26.80;61.40;;;;;;4970897;28;20061;-75
2021/08/14 12:54:39;;;;;;;10.20;4.95;;;26.80;61.10;;;;;;4971741;28;20117;-76
2021/08/14 12:57:09;;;;;;;8.70;4.80;;;26.40;60.90;;;;;;4971559;28;20065;-75
2021/08/14 12:59:37;;;;;;;7.55;4.53;;;26.10;61.90;;;;;;4970365;28;20552;-76
2021/08/14 13:02:06;;;;;;;10.02;4.22;;;25.90;62.00;;;;;;4984777;28;20038;-75
2021/08/14 13:04:35;;;;;;;6.28;3.67;;;25.80;62.10;;;;;;4970644;28;20074;-76